createdAt,value
2019-02-08T00:02:23.675Z,81.06
2019-02-08T00:04:55.293Z,81.24
2019-02-08T00:07:26.318Z,81.01
2019-02-08T00:09:57.298Z,80.51
2019-02-08T00:12:28.588Z,80.75
2019-02-08T00:14:59.586Z,80.77
2019-02-08T00:17:31.092Z,81.16
2019-02-08T00:20:02.112Z,80.96
2019-02-08T00:22:33.092Z,81.19
2019-02-08T00:25:05.410Z,81.60
2019-02-08T00:27:36.405Z,82.01
2019-02-08T00:30:12.122Z,82.34
2019-02-08T00:32:43.117Z,82.47
2019-02-08T00:35:14.511Z,81.70
2019-02-08T00:37:45.813Z,81.57
2019-02-08T00:40:17.424Z,80.61
2019-02-08T00:42:48.382Z,79.28
2019-02-08T00:45:19.928Z,78.66
2019-02-08T00:47:50.965Z,78.80
2019-02-08T00:50:23.810Z,78.62
2019-02-08T00:52:55.218Z,78.19
2019-02-08T00:55:26.187Z,78.26
2019-02-08T00:57:57.308Z,78.73
2019-02-08T01:00:28.525Z,79.24
2019-02-08T01:02:59.773Z,79.60
2019-02-08T01:05:31.142Z,79.04
2019-02-08T01:08:02.089Z,79.25
2019-02-08T01:10:33.367Z,79.51
2019-02-08T01:13:05.195Z,79.44
2019-02-08T01:15:36.315Z,79.74
2019-02-08T01:18:07.444Z,79.65
2019-02-08T01:20:38.639Z,79.67
2019-02-08T01:23:09.778Z,79.68
2019-02-08T01:25:40.696Z,80.09
2019-02-08T01:28:11.717Z,79.72
2019-02-08T01:30:42.679Z,79.76
2019-02-08T01:33:13.611Z,79.62
2019-02-08T01:35:44.570Z,79.21
2019-02-08T01:38:15.463Z,79.27
2019-02-08T01:40:46.414Z,79.25
2019-02-08T01:43:17.776Z,79.23
2019-02-08T01:45:48.688Z,79.28
2019-02-08T01:48:19.674Z,79.34
2019-02-08T01:50:50.596Z,79.60
2019-02-08T01:53:21.482Z,79.72
2019-02-08T01:55:52.396Z,79.37
2019-02-08T01:58:23.313Z,79.25
2019-02-08T02:00:54.556Z,79.32
2019-02-08T02:03:25.503Z,79.11
2019-02-08T02:05:56.594Z,79.07
2019-02-08T02:08:27.570Z,78.74
2019-02-08T02:10:58.509Z,78.30
2019-02-08T02:13:29.528Z,78.51
2019-02-08T02:16:00.449Z,78.61
2019-02-08T02:18:31.420Z,78.70
2019-02-08T02:21:02.330Z,78.56
2019-02-08T02:23:33.568Z,78.58
2019-02-08T02:26:04.600Z,78.47
2019-02-08T02:28:35.824Z,78.83
2019-02-08T02:31:06.939Z,78.68
2019-02-08T02:33:37.873Z,78.75
2019-02-08T02:36:08.774Z,78.69
2019-02-08T02:38:39.716Z,78.21
2019-02-08T02:41:10.632Z,78.17
2019-02-08T02:43:41.625Z,78.03
2019-02-08T02:46:12.615Z,77.50
2019-02-08T02:48:43.520Z,77.41
2019-02-08T02:51:14.784Z,76.87
2019-02-08T02:53:45.994Z,76.87
2019-02-08T02:56:16.933Z,76.67
2019-02-08T02:58:48.241Z,76.65
2019-02-08T03:01:19.132Z,76.25
2019-02-08T03:03:50.085Z,76.16
2019-02-08T03:06:20.994Z,76.11
2019-02-08T03:08:52.407Z,76.27
2019-02-08T03:11:23.324Z,76.35
2019-02-08T03:13:54.253Z,76.37
2019-02-08T03:16:25.338Z,76.37
2019-02-08T03:18:56.236Z,76.59
2019-02-08T03:21:27.115Z,76.79
2019-02-08T03:23:58.072Z,76.84
2019-02-08T03:26:28.987Z,77.03
2019-02-08T03:29:00.229Z,76.94
2019-02-08T03:31:31.155Z,77.20
2019-02-08T03:34:02.102Z,77.17
2019-02-08T03:36:33.012Z,77.04
2019-02-08T03:39:05.405Z,77.28
2019-02-08T03:41:36.334Z,77.43
2019-02-08T03:44:07.249Z,77.42
2019-02-08T03:46:38.360Z,77.58
2019-02-08T03:49:09.456Z,77.48
2019-02-08T03:51:40.373Z,77.52
2019-02-08T03:54:11.707Z,77.22
2019-02-08T03:56:42.627Z,77.86
2019-02-08T03:59:13.821Z,77.82
2019-02-08T04:01:44.753Z,77.46
2019-02-08T04:04:19.056Z,77.29
2019-02-08T04:06:49.990Z,77.48
2019-02-08T04:09:20.882Z,77.16
2019-02-08T04:11:51.805Z,77.22
2019-02-08T04:14:23.006Z,77.30
2019-02-08T04:16:53.928Z,77.21
2019-02-08T04:19:24.933Z,77.56
2019-02-08T04:21:55.817Z,77.16
2019-02-08T04:24:29.891Z,77.01
2019-02-08T04:26:59.685Z,76.95
2019-02-08T04:29:30.644Z,77.18
2019-02-08T04:32:01.667Z,77.09
2019-02-08T04:34:32.574Z,77.04
2019-02-08T04:37:03.515Z,76.96
2019-02-08T04:39:34.482Z,77.28
2019-02-08T04:42:05.433Z,77.34
2019-02-08T04:44:36.376Z,77.33
2019-02-08T04:47:07.539Z,77.73
2019-02-08T04:49:38.424Z,77.70
2019-02-08T04:52:09.379Z,77.92
2019-02-08T04:54:40.265Z,77.82
2019-02-08T04:57:11.304Z,77.59
2019-02-08T04:59:42.193Z,77.64
2019-02-08T05:02:13.122Z,77.45
2019-02-08T05:04:44.130Z,77.55
2019-02-08T05:07:15.096Z,78.10
2019-02-08T05:09:46.037Z,78.22
2019-02-08T05:12:17.041Z,78.03
2019-02-08T05:14:48.039Z,77.98
2019-02-08T05:17:19.014Z,78.29
2019-02-08T05:19:49.908Z,78.32
2019-02-08T05:22:20.896Z,78.87
2019-02-08T05:24:51.811Z,79.09
2019-02-08T05:27:22.695Z,79.48
2019-02-08T05:29:53.625Z,79.47
2019-02-08T05:32:24.538Z,79.91
2019-02-08T05:34:55.505Z,79.97
2019-02-08T05:37:26.397Z,80.38
2019-02-08T05:39:57.299Z,80.46
2019-02-08T05:42:28.502Z,80.45
2019-02-08T05:44:59.798Z,81.12
2019-02-08T05:47:30.724Z,81.02
2019-02-08T05:50:01.639Z,81.60
2019-02-08T05:52:32.620Z,82.49
2019-02-08T05:55:03.738Z,83.06
2019-02-08T05:57:34.954Z,83.23
2019-02-08T06:00:15.586Z,83.61
2019-02-08T06:02:46.522Z,83.65
2019-02-08T06:05:18.857Z,83.78
2019-02-08T06:07:49.784Z,83.80
2019-02-08T06:10:21.134Z,83.42
2019-02-08T06:12:52.157Z,83.37
2019-02-08T06:15:23.171Z,83.57
2019-02-08T06:17:54.239Z,83.41
2019-02-08T06:20:26.037Z,83.45
2019-02-08T06:22:57.065Z,83.41
2019-02-08T06:25:28.225Z,83.18
2019-02-08T06:27:59.783Z,83.25
2019-02-08T06:30:30.815Z,82.97
2019-02-08T06:33:01.811Z,82.97
2019-02-08T06:35:32.927Z,83.00
2019-02-08T06:38:04.147Z,82.92
2019-02-08T06:40:36.111Z,82.75
2019-02-08T06:43:07.397Z,82.92
2019-02-08T06:45:39.027Z,82.67
2019-02-08T06:48:11.954Z,82.60
2019-02-08T06:50:42.871Z,82.21
2019-02-08T06:53:13.939Z,82.05
2019-02-08T06:55:44.905Z,81.73
2019-02-08T06:58:25.666Z,81.65
2019-02-08T07:01:14.388Z,81.26
2019-02-08T07:03:54.486Z,80.91
2019-02-08T07:06:42.755Z,80.43
2019-02-08T07:09:32.951Z,79.91
2019-02-08T07:12:21.561Z,79.89
2019-02-08T07:15:08.227Z,79.20
2019-02-08T07:17:58.073Z,76.59
2019-02-08T07:20:59.682Z,74.49
2019-02-08T07:23:44.087Z,75.53
2019-02-08T07:26:39.895Z,76.10
2019-02-08T07:29:28.858Z,77.02
2019-02-08T07:32:24.636Z,77.24
2019-02-08T07:35:27.099Z,77.64
2019-02-08T07:38:21.783Z,77.54
2019-02-08T07:41:21.476Z,77.38
2019-02-08T07:44:06.569Z,77.44
2019-02-08T07:47:03.188Z,77.28
2019-02-08T07:49:45.065Z,77.45
2019-02-08T07:52:38.446Z,77.27
2019-02-08T07:55:27.590Z,77.04
2019-02-08T07:58:04.992Z,76.87
2019-02-08T08:00:51.955Z,76.99
2019-02-08T08:03:44.653Z,76.55
2019-02-08T08:06:43.952Z,76.78
2019-02-08T08:09:28.749Z,76.65
2019-02-08T08:12:28.224Z,76.63
2019-02-08T08:15:29.247Z,76.62
2019-02-08T08:18:28.534Z,76.73
2019-02-08T08:21:18.672Z,76.38
2019-02-08T08:24:30.239Z,76.39
2019-02-08T08:27:27.293Z,76.44
2019-02-08T08:30:18.165Z,76.32
2019-02-08T08:33:05.576Z,76.33
2019-02-08T08:36:27.600Z,76.54
2019-02-08T08:40:14.250Z,76.57
2019-02-08T08:43:43.846Z,76.76
2019-02-08T08:46:57.611Z,76.50
2019-02-08T08:50:27.410Z,76.67
2019-02-08T08:53:47.036Z,76.62
2019-02-08T08:57:12.224Z,77.06
2019-02-08T09:00:54.238Z,76.40
2019-02-08T09:04:41.903Z,76.12
2019-02-08T09:08:19.562Z,75.77
2019-02-08T09:11:57.058Z,75.56
2019-02-08T09:15:39.048Z,75.38
2019-02-08T09:19:11.221Z,75.39
2019-02-08T09:22:43.344Z,75.51
2019-02-08T09:25:50.053Z,75.67
2019-02-08T09:29:19.269Z,75.98
2019-02-08T09:32:37.304Z,75.41
2019-02-08T09:36:11.098Z,74.90
2019-02-08T09:39:31.213Z,74.27
2019-02-08T09:43:07.583Z,73.71
2019-02-08T09:46:56.344Z,73.32
2019-02-08T09:50:23.088Z,72.41
2019-02-08T09:53:57.716Z,69.24
2019-02-08T09:57:39.008Z,69.02
2019-02-08T10:01:07.648Z,69.96
2019-02-08T10:04:28.036Z,70.22
2019-02-08T10:07:51.640Z,69.65
2019-02-08T10:11:20.750Z,70.44
2019-02-08T10:14:40.986Z,70.50
2019-02-08T10:18:06.596Z,70.34
2019-02-08T10:21:43.846Z,69.99
2019-02-08T10:25:19.074Z,70.63
2019-02-08T10:28:51.241Z,70.06
2019-02-08T10:32:15.861Z,70.06
2019-02-08T10:35:37.456Z,69.35
2019-02-08T10:39:09.828Z,69.44
2019-02-08T10:42:41.218Z,68.89
2019-02-08T10:46:02.459Z,68.32
2019-02-08T10:49:27.037Z,68.03
2019-02-08T10:53:15.718Z,67.39
2019-02-08T10:56:40.554Z,66.84
2019-02-08T11:00:12.019Z,66.64
2019-02-08T11:03:44.879Z,67.22
2019-02-08T11:11:17.315Z,66.25
2019-02-08T11:14:49.944Z,65.83
2019-02-08T11:18:36.426Z,66.76
2019-02-08T11:21:08.132Z,66.45
2019-02-08T11:23:39.049Z,65.49
2019-02-08T11:26:10.644Z,65.30
2019-02-08T11:28:41.671Z,65.09
2019-02-08T11:31:12.644Z,64.98
2019-02-08T11:33:43.622Z,65.28
2019-02-08T11:36:14.716Z,65.48
2019-02-08T11:38:45.695Z,65.60
2019-02-08T11:41:16.757Z,65.49
2019-02-08T11:43:47.634Z,65.44
2019-02-08T11:46:25.742Z,64.77
2019-02-08T11:48:56.638Z,64.73
2019-02-08T11:51:27.870Z,64.62
2019-02-08T11:53:58.793Z,65.01
2019-02-08T11:56:30.143Z,65.09
2019-02-08T11:59:01.194Z,65.31
2019-02-08T12:01:37.373Z,65.80
2019-02-08T12:04:09.110Z,66.04
2019-02-08T12:06:40.421Z,66.07
2019-02-08T12:09:18.294Z,66.36
2019-02-08T12:11:49.721Z,66.18
2019-02-08T12:14:20.925Z,66.37
2019-02-08T12:16:52.430Z,66.47
2019-02-08T12:19:23.321Z,66.04
2019-02-08T12:21:54.256Z,66.06
2019-02-08T12:24:25.560Z,66.18
2019-02-08T12:26:56.520Z,66.20
2019-02-08T12:29:27.491Z,66.19
2019-02-08T12:31:59.394Z,66.13
2019-02-08T12:34:30.338Z,66.14
2019-02-08T12:37:01.249Z,66.54
2019-02-08T12:39:32.172Z,66.49
2019-02-08T12:42:03.515Z,66.20
2019-02-08T12:44:34.402Z,66.61
2019-02-08T12:47:05.480Z,66.86
2019-02-08T12:49:36.382Z,67.30
2019-02-08T12:52:07.259Z,67.32
2019-02-08T12:54:38.536Z,67.61
2019-02-08T12:57:09.437Z,67.60
2019-02-08T12:59:40.401Z,67.82
2019-02-08T13:02:11.326Z,67.74
2019-02-08T13:04:42.204Z,68.73
2019-02-08T13:07:13.416Z,68.40
2019-02-08T13:09:44.307Z,68.44
2019-02-08T13:12:15.242Z,68.54
2019-02-08T13:14:46.124Z,68.81
2019-02-08T13:17:17.292Z,68.36
2019-02-08T13:19:48.243Z,68.20
2019-02-08T13:22:19.438Z,68.20
2019-02-08T13:24:50.433Z,68.33
2019-02-08T13:27:21.329Z,68.47
2019-02-08T13:29:52.225Z,68.36
2019-02-08T13:32:23.866Z,68.09
2019-02-08T13:34:54.773Z,67.63
2019-02-08T13:37:25.735Z,67.71
2019-02-08T13:39:56.688Z,67.55
2019-02-08T13:42:27.593Z,67.99
2019-02-08T13:44:58.550Z,68.20
2019-02-08T13:47:29.432Z,68.26
2019-02-08T13:50:00.785Z,68.27
2019-02-08T13:52:32.241Z,68.50
2019-02-08T13:55:03.180Z,68.90
2019-02-08T13:57:34.118Z,68.43
2019-02-08T14:00:06.580Z,68.24
2019-02-08T14:02:37.592Z,68.56
2019-02-08T14:05:09.540Z,68.79
2019-02-08T14:07:40.753Z,68.82
2019-02-08T14:10:13.641Z,68.81
2019-02-08T14:12:44.546Z,68.66
2019-02-08T14:15:16.918Z,68.61
2019-02-08T14:17:48.134Z,68.75
2019-02-08T14:20:22.359Z,68.70
2019-02-08T14:22:53.675Z,68.46
2019-02-08T14:25:25.221Z,68.62
2019-02-08T14:27:56.495Z,68.54
2019-02-08T14:30:34.035Z,68.75
2019-02-08T14:33:05.274Z,68.97
2019-02-08T14:35:36.509Z,69.03
2019-02-08T14:38:12.189Z,69.03
2019-02-08T14:40:43.214Z,68.75
2019-02-08T14:43:14.124Z,68.85
2019-02-08T14:45:45.055Z,68.87
2019-02-08T14:48:16.553Z,68.99
2019-02-08T14:50:47.907Z,69.47
2019-02-08T14:53:18.851Z,69.54
2019-02-08T14:55:49.782Z,69.57
2019-02-08T14:58:20.975Z,69.69
2019-02-08T15:00:51.952Z,70.04
2019-02-08T15:03:22.877Z,69.89
2019-02-08T15:05:53.753Z,70.14
2019-02-08T15:08:24.664Z,70.08
2019-02-08T15:10:55.650Z,69.96
2019-02-08T15:13:28.917Z,70.08
2019-02-08T15:15:59.886Z,70.10
2019-02-08T15:18:32.610Z,70.36
2019-02-08T15:21:03.773Z,70.15
2019-02-08T15:23:35.022Z,70.39
2019-02-08T15:26:06.009Z,70.54
2019-02-08T15:28:36.936Z,70.88
2019-02-08T15:31:07.878Z,70.89
2019-02-08T15:33:38.866Z,70.60
2019-02-08T15:36:10.160Z,70.98
2019-02-08T15:38:41.091Z,71.41
2019-02-08T15:41:12.255Z,71.95
2019-02-08T15:43:43.189Z,71.94
2019-02-08T15:46:14.209Z,71.38
2019-02-08T15:48:45.238Z,71.58
2019-02-08T15:51:16.231Z,71.31
2019-02-08T15:53:47.272Z,71.43
2019-02-08T15:56:18.761Z,71.54
2019-02-08T15:58:49.984Z,71.83
2019-02-08T16:01:21.247Z,72.15
2019-02-08T16:03:52.246Z,72.44
2019-02-08T16:06:23.311Z,72.29
2019-02-08T16:08:54.635Z,72.37
2019-02-08T16:11:25.607Z,72.65
2019-02-08T16:13:57.207Z,72.37
2019-02-08T16:16:28.099Z,72.39
2019-02-08T16:18:59.074Z,72.64
2019-02-08T16:21:30.149Z,72.72
2019-02-08T16:24:01.125Z,72.81
2019-02-08T16:26:32.797Z,72.96
2019-02-08T16:29:03.889Z,72.63
2019-02-08T16:31:34.883Z,72.96
2019-02-08T16:34:06.476Z,72.96
2019-02-08T16:36:37.410Z,73.12
2019-02-08T16:39:11.882Z,73.44
2019-02-08T16:41:42.783Z,73.50
2019-02-08T16:44:14.038Z,73.69
2019-02-08T16:46:45.163Z,73.76
2019-02-08T16:49:16.118Z,73.65
2019-02-08T16:51:47.569Z,73.66
2019-02-08T16:54:18.926Z,73.63
2019-02-08T16:56:49.894Z,73.74
2019-02-08T16:59:20.843Z,73.99
2019-02-08T17:01:52.074Z,74.15
2019-02-08T17:04:23.050Z,74.03
2019-02-08T17:06:54.031Z,73.99
2019-02-08T17:09:25.309Z,73.84
2019-02-08T17:11:56.304Z,74.19
2019-02-08T17:14:27.283Z,74.11
2019-02-08T17:16:58.348Z,74.03
2019-02-08T17:19:29.567Z,74.28
2019-02-08T17:22:00.817Z,74.55
2019-02-08T17:24:31.754Z,74.39
2019-02-08T17:27:02.690Z,74.60
2019-02-08T17:29:33.700Z,74.58
2019-02-08T17:32:04.598Z,74.42
2019-02-08T17:34:35.648Z,74.53
2019-02-08T17:37:06.644Z,74.43
2019-02-08T17:39:37.557Z,74.02
2019-02-08T17:42:08.605Z,73.99
2019-02-08T17:44:39.809Z,73.87
2019-02-08T17:47:10.767Z,73.84
2019-02-08T17:49:41.935Z,73.54
2019-02-08T17:52:12.877Z,73.22
2019-02-08T17:54:44.171Z,73.23
2019-02-08T17:57:15.085Z,73.24
2019-02-08T17:59:46.110Z,73.47
2019-02-08T18:02:17.319Z,73.56
2019-02-08T18:04:48.557Z,73.32
2019-02-08T18:07:20.140Z,73.46
2019-02-08T18:09:51.400Z,73.30
2019-02-08T18:12:22.681Z,73.01
2019-02-08T18:14:53.625Z,73.06
2019-02-08T18:17:24.936Z,72.88
2019-02-08T18:19:57.736Z,72.69
2019-02-08T18:22:28.677Z,72.68
2019-02-08T18:24:59.694Z,72.83
2019-02-08T18:27:30.915Z,72.75
2019-02-08T18:30:01.820Z,72.79
2019-02-08T18:32:32.875Z,72.67
2019-02-08T18:35:04.022Z,72.41
2019-02-08T18:37:35.370Z,72.28
2019-02-08T18:40:09.005Z,72.19
2019-02-08T18:42:39.987Z,72.10
2019-02-08T18:45:15.057Z,72.08
2019-02-08T18:47:46.410Z,72.14
2019-02-08T18:50:25.042Z,72.06
2019-02-08T18:52:56.412Z,71.89
2019-02-08T18:55:28.999Z,72.04
2019-02-08T18:58:00.295Z,72.08
2019-02-08T19:00:39.823Z,72.17
2019-02-08T19:03:07.836Z,72.04
2019-02-08T19:05:39.364Z,71.95
2019-02-08T19:08:10.896Z,71.87
2019-02-08T19:10:41.870Z,71.61
2019-02-08T19:13:13.192Z,71.84
2019-02-08T19:15:44.298Z,71.75
2019-02-08T19:18:15.557Z,71.58
2019-02-08T19:20:46.494Z,71.64
2019-02-08T19:23:17.487Z,71.75
2019-02-08T19:25:48.739Z,71.58
2019-02-08T19:28:26.395Z,71.55
2019-02-08T19:30:52.540Z,71.51
2019-02-08T19:33:23.889Z,71.29
2019-02-08T19:35:54.837Z,71.53
2019-02-08T19:38:26.326Z,71.42
2019-02-08T19:40:59.586Z,71.67
2019-02-08T19:43:30.538Z,71.50
2019-02-08T19:46:01.462Z,71.54
2019-02-08T19:48:32.856Z,71.27
2019-02-08T19:51:23.956Z,71.49
2019-02-08T19:53:55.727Z,71.53
2019-02-08T19:56:27.791Z,71.49
2019-02-08T19:59:01.355Z,71.63
2019-02-08T20:01:32.423Z,71.74
2019-02-08T20:04:03.790Z,71.73
2019-02-08T20:06:35.211Z,71.75
2019-02-08T20:09:10.769Z,71.46
2019-02-08T20:11:43.023Z,71.24
2019-02-08T20:14:14.740Z,71.50
2019-02-08T20:16:49.483Z,71.62
2019-02-08T20:19:20.583Z,71.29
2019-02-08T20:21:53.819Z,71.12
2019-02-08T20:24:28.947Z,70.90
2019-02-08T20:27:00.740Z,70.79
2019-02-08T20:29:31.905Z,70.69
2019-02-08T20:32:02.882Z,70.67
2019-02-08T20:34:33.841Z,70.81
2019-02-08T20:37:13.091Z,70.67
2019-02-08T20:39:44.029Z,70.62
2019-02-08T20:42:17.863Z,70.89
2019-02-08T20:44:49.147Z,70.62
2019-02-08T20:47:22.755Z,70.62
2019-02-08T20:49:56.804Z,70.43
2019-02-08T20:52:28.252Z,70.39
2019-02-08T20:54:59.264Z,70.27
2019-02-08T20:57:30.279Z,69.90
2019-02-08T21:00:01.618Z,69.79
2019-02-08T21:02:33.582Z,70.23
2019-02-08T21:05:05.503Z,70.16
2019-02-08T21:07:36.452Z,70.00
2019-02-08T21:10:08.869Z,70.41
2019-02-08T21:12:40.112Z,69.96
2019-02-08T21:15:12.661Z,69.91
2019-02-08T21:17:44.240Z,69.77
2019-02-08T21:20:15.873Z,69.92
2019-02-08T21:22:46.908Z,69.87
2019-02-08T21:25:25.045Z,69.62
2019-02-08T21:27:56.514Z,69.67
2019-02-08T21:30:28.092Z,69.56
2019-02-08T21:32:59.665Z,69.75
2019-02-08T21:35:31.305Z,69.77
2019-02-08T21:38:03.568Z,69.78
2019-02-08T21:40:34.605Z,69.47
2019-02-08T21:43:06.328Z,69.73
2019-02-08T21:45:39.614Z,69.50
2019-02-08T21:48:12.357Z,69.53
2019-02-08T21:50:43.685Z,69.49
2019-02-08T21:53:15.021Z,69.66
2019-02-08T21:55:46.253Z,69.42
2019-02-08T21:58:17.234Z,69.57
2019-02-08T22:00:48.564Z,69.54
2019-02-08T22:03:20.106Z,69.54
2019-02-08T22:06:05.075Z,69.23
2019-02-08T22:08:36.074Z,69.32
2019-02-08T22:11:07.660Z,69.54
2019-02-08T22:13:39.113Z,69.48
2019-02-08T22:16:10.211Z,69.38
2019-02-08T22:18:41.505Z,69.40
2019-02-08T22:21:12.548Z,69.66
2019-02-08T22:23:43.587Z,69.37
2019-02-08T22:26:14.944Z,69.51
2019-02-08T22:28:46.178Z,69.64
2019-02-08T22:31:17.252Z,69.41
2019-02-08T22:33:48.839Z,69.96
2019-02-08T22:36:20.843Z,69.97
2019-02-08T22:38:51.737Z,69.65
2019-02-08T22:41:22.638Z,69.89
2019-02-08T22:43:53.622Z,69.95
2019-02-08T22:46:24.512Z,70.38
2019-02-08T22:48:55.475Z,70.36
2019-02-08T22:51:26.422Z,69.60
2019-02-08T22:53:57.490Z,69.57
2019-02-08T22:56:28.384Z,69.51
2019-02-08T22:58:59.625Z,69.28
2019-02-08T23:01:36.646Z,69.39
2019-02-08T23:04:09.233Z,69.11
2019-02-08T23:06:44.788Z,68.82
2019-02-08T23:09:24.483Z,68.55
2019-02-08T23:11:55.368Z,68.76
2019-02-08T23:14:26.283Z,68.92
2019-02-08T23:16:57.202Z,68.61
2019-02-08T23:19:28.107Z,68.71
2019-02-08T23:21:59.108Z,68.90
2019-02-08T23:24:30.305Z,68.65
2019-02-08T23:27:01.267Z,68.44
2019-02-08T23:29:32.188Z,68.30
2019-02-08T23:32:03.101Z,68.10
2019-02-08T23:34:34.222Z,68.22
2019-02-08T23:37:05.777Z,68.44
2019-02-08T23:39:37.047Z,68.32
2019-02-08T23:42:08.179Z,68.17
2019-02-08T23:44:39.101Z,68.32
2019-02-08T23:47:10.242Z,68.19
2019-02-08T23:49:41.133Z,68.13
2019-02-08T23:52:12.059Z,68.11
2019-02-08T23:54:42.988Z,68.16
2019-02-08T23:57:13.896Z,68.18
2019-02-08T23:59:44.885Z,67.91
